sensor_id;sensor_type;location;lat;lon;timestamp;pressure;altitude;pressure_sealevel;temperature;humidity
75617;BME280;64200;55.426;37.758;2023-02-24T00:04:45;98977.88;;;-8.23;52.79
75617;BME280;64200;55.426;37.758;2023-02-24T00:09:50;98976.16;;;-8.31;53.49
75617;BME280;64200;55.426;37.758;2023-02-24T00:14:51;98978.97;;;-8.08;53.01
75617;BME280;64200;55.426;37.758;2023-02-24T00:19:51;98973.38;;;-7.96;52.11
75617;BME280;64200;55.426;37.758;2023-02-24T00:24:52;98971.66;;;-8.04;52.45
75617;BME280;64200;55.426;37.758;2023-02-24T00:29:53;98959.56;;;-8.10;52.34
75617;BME280;64200;55.426;37.758;2023-02-24T00:34:54;98947.25;;;-8.07;52.08
75617;BME280;64200;55.426;37.758;2023-02-24T00:39:55;98947.00;;;-7.79;51.86
75617;BME280;64200;55.426;37.758;2023-02-24T00:44:57;98935.09;;;-8.37;53.12
75617;BME280;64200;55.426;37.758;2023-02-24T00:49:58;98921.06;;;-8.23;52.72
75617;BME280;64200;55.426;37.758;2023-02-24T00:54:58;98902.75;;;-8.53;52.40
75617;BME280;64200;55.426;37.758;2023-02-24T00:59:59;98914.41;;;-8.49;52.99
75617;BME280;64200;55.426;37.758;2023-02-24T01:04:59;98900.59;;;-8.43;53.12
75617;BME280;64200;55.426;37.758;2023-02-24T01:10:05;98894.28;;;-8.51;52.89
75617;BME280;64200;55.426;37.758;2023-02-24T01:15:09;98895.38;;;-8.33;52.82
75617;BME280;64200;55.426;37.758;2023-02-24T01:20:11;98881.56;;;-8.27;52.18
75617;BME280;64200;55.426;37.758;2023-02-24T01:25:16;98875.44;;;-8.48;52.96
75617;BME280;64200;55.426;37.758;2023-02-24T01:30:19;98875.72;;;-8.30;52.72
75617;BME280;64200;55.426;37.758;2023-02-24T01:35:19;98878.94;;;-8.24;51.96
75617;BME280;64200;55.426;37.758;2023-02-24T01:40:20;98848.97;;;-8.35;52.71
75617;BME280;64200;55.426;37.758;2023-02-24T01:45:25;98858.53;;;-8.18;52.43
75617;BME280;64200;55.426;37.758;2023-02-24T01:50:28;98850.84;;;-8.16;51.22
75617;BME280;64200;55.426;37.758;2023-02-24T01:55:35;98822.13;;;-8.24;52.00
75617;BME280;64200;55.426;37.758;2023-02-24T02:00:38;98834.19;;;-8.18;51.59
75617;BME280;64200;55.426;37.758;2023-02-24T02:05:44;98814.53;;;-8.15;51.64
75617;BME280;64200;55.426;37.758;2023-02-24T02:10:48;98802.16;;;-8.16;50.99
75617;BME280;64200;55.426;37.758;2023-02-24T02:48:18;98746.25;;;-8.31;51.68
75617;BME280;64200;55.426;37.758;2023-02-24T02:58:34;98730.75;;;-8.34;50.89
75617;BME280;64200;55.426;37.758;2023-02-24T03:03:44;98712.09;;;-8.39;51.15
75617;BME280;64200;55.426;37.758;2023-02-24T03:08:55;98697.81;;;-8.40;50.93
75617;BME280;64200;55.426;37.758;2023-02-24T03:13:56;98691.59;;;-8.44;51.61
75617;BME280;64200;55.426;37.758;2023-02-24T03:19:02;98683.78;;;-8.49;51.17
75617;BME280;64200;55.426;37.758;2023-02-24T03:24:03;98654.84;;;-8.72;51.80
75617;BME280;64200;55.426;37.758;2023-02-24T03:39:16;98632.75;;;-8.77;52.25
75617;BME280;64200;55.426;37.758;2023-02-24T03:44:17;98620.00;;;-8.77;51.95
75617;BME280;64200;55.426;37.758;2023-02-24T03:49:17;98609.59;;;-8.75;51.88
75617;BME280;64200;55.426;37.758;2023-02-24T03:55:02;98602.44;;;-8.63;51.98
75617;BME280;64200;55.426;37.758;2023-02-24T04:00:04;98588.56;;;-8.62;52.55
75617;BME280;64200;55.426;37.758;2023-02-24T04:05:25;98582.69;;;-8.68;53.33
75617;BME280;64200;55.426;37.758;2023-02-24T04:15:42;98561.03;;;-8.71;53.22
75617;BME280;64200;55.426;37.758;2023-02-24T04:20:47;98543.56;;;-8.77;53.22
75617;BME280;64200;55.426;37.758;2023-02-24T04:25:53;98551.31;;;-8.76;53.96
75617;BME280;64200;55.426;37.758;2023-02-24T04:31:01;98540.72;;;-8.61;53.82
75617;BME280;64200;55.426;37.758;2023-02-24T04:36:05;98531.41;;;-8.64;53.34
75617;BME280;64200;55.426;37.758;2023-02-24T04:41:08;98536.31;;;-8.70;54.12
75617;BME280;64200;55.426;37.758;2023-02-24T04:46:08;98536.00;;;-8.65;54.26
75617;BME280;64200;55.426;37.758;2023-02-24T04:51:09;98513.66;;;-8.61;54.13
75617;BME280;64200;55.426;37.758;2023-02-24T04:56:09;98506.91;;;-8.48;53.62
75617;BME280;64200;55.426;37.758;2023-02-24T05:01:10;98507.81;;;-8.33;53.76
75617;BME280;64200;55.426;37.758;2023-02-24T05:06:13;98517.25;;;-8.20;54.39
75617;BME280;64200;55.426;37.758;2023-02-24T05:11:16;98480.88;;;-8.26;53.89
75617;BME280;64200;55.426;37.758;2023-02-24T05:16:17;98491.84;;;-8.12;53.40
75617;BME280;64200;55.426;37.758;2023-02-24T05:21:19;98478.56;;;-7.90;53.94
75617;BME280;64200;55.426;37.758;2023-02-24T05:26:36;98478.50;;;-7.94;53.61
75617;BME280;64200;55.426;37.758;2023-02-24T05:31:37;98466.78;;;-7.67;52.97
75617;BME280;64200;55.426;37.758;2023-02-24T05:36:39;98447.50;;;-7.62;53.05
75617;BME280;64200;55.426;37.758;2023-02-24T05:41:41;98452.50;;;-7.64;52.62
75617;BME280;64200;55.426;37.758;2023-02-24T05:46:44;98438.97;;;-7.64;53.22
75617;BME280;64200;55.426;37.758;2023-02-24T05:51:45;98433.16;;;-7.63;53.35
75617;BME280;64200;55.426;37.758;2023-02-24T05:56:58;98438.66;;;-7.55;53.50
75617;BME280;64200;55.426;37.758;2023-02-24T06:02:01;98415.03;;;-7.59;53.19
75617;BME280;64200;55.426;37.758;2023-02-24T06:07:10;98398.31;;;-7.16;52.69
75617;BME280;64200;55.426;37.758;2023-02-24T06:12:13;98400.97;;;-7.27;53.15
75617;BME280;64200;55.426;37.758;2023-02-24T06:17:15;98382.41;;;-7.21;53.16
75617;BME280;64200;55.426;37.758;2023-02-24T06:22:18;98375.91;;;-7.06;52.71
75617;BME280;64200;55.426;37.758;2023-02-24T06:27:19;98379.00;;;-7.03;52.93
75617;BME280;64200;55.426;37.758;2023-02-24T06:32:23;98365.84;;;-7.05;52.35
75617;BME280;64200;55.426;37.758;2023-02-24T06:37:27;98350.00;;;-7.03;52.68
75617;BME280;64200;55.426;37.758;2023-02-24T06:42:29;98357.72;;;-7.09;53.27
75617;BME280;64200;55.426;37.758;2023-02-24T06:47:29;98348.94;;;-6.77;53.22
75617;BME280;64200;55.426;37.758;2023-02-24T06:52:32;98362.81;;;-6.93;53.89
75617;BME280;64200;55.426;37.758;2023-02-24T06:57:33;98346.56;;;-6.93;55.36
75617;BME280;64200;55.426;37.758;2023-02-24T07:02:33;98340.66;;;-7.09;57.31
75617;BME280;64200;55.426;37.758;2023-02-24T07:07:39;98315.56;;;-6.95;57.94
75617;BME280;64200;55.426;37.758;2023-02-24T07:12:45;98320.16;;;-7.07;58.73
75617;BME280;64200;55.426;37.758;2023-02-24T07:17:45;98329.19;;;-6.74;58.60
75617;BME280;64200;55.426;37.758;2023-02-24T07:22:50;98338.06;;;-6.88;59.62
75617;BME280;64200;55.426;37.758;2023-02-24T07:27:51;98288.50;;;-6.77;59.94
75617;BME280;64200;55.426;37.758;2023-02-24T07:32:52;98298.66;;;-6.42;59.28
75617;BME280;64200;55.426;37.758;2023-02-24T07:37:54;98273.44;;;-6.64;60.32
75617;BME280;64200;55.426;37.758;2023-02-24T07:43:01;98277.72;;;-6.52;60.75
75617;BME280;64200;55.426;37.758;2023-02-24T07:48:02;98287.44;;;-6.22;60.54
75617;BME280;64200;55.426;37.758;2023-02-24T07:53:04;98269.22;;;-6.18;60.81
75617;BME280;64200;55.426;37.758;2023-02-24T07:58:04;98254.50;;;-6.31;61.91
75617;BME280;64200;55.426;37.758;2023-02-24T08:03:05;98260.31;;;-6.19;62.31
75617;BME280;64200;55.426;37.758;2023-02-24T08:08:05;98252.94;;;-6.25;63.57
75617;BME280;64200;55.426;37.758;2023-02-24T08:13:06;98249.78;;;-5.70;62.16
75617;BME280;64200;55.426;37.758;2023-02-24T08:18:07;98240.09;;;-5.78;63.10
75617;BME280;64200;55.426;37.758;2023-02-24T08:23:08;98225.34;;;-5.80;63.60
75617;BME280;64200;55.426;37.758;2023-02-24T08:28:10;98218.38;;;-5.82;63.24
75617;BME280;64200;55.426;37.758;2023-02-24T08:33:17;98226.06;;;-5.51;62.68
75617;BME280;64200;55.426;37.758;2023-02-24T08:38:20;98216.34;;;-5.52;62.62
75617;BME280;64200;55.426;37.758;2023-02-24T08:43:29;98213.69;;;-5.77;64.03
75617;BME280;64200;55.426;37.758;2023-02-24T08:48:35;98236.66;;;-6.00;66.00
75617;BME280;64200;55.426;37.758;2023-02-24T08:53:37;98216.41;;;-5.70;66.22
75617;BME280;64200;55.426;37.758;2023-02-24T08:58:43;98198.56;;;-5.68;66.41
75617;BME280;64200;55.426;37.758;2023-02-24T09:03:49;98207.50;;;-5.78;66.84
75617;BME280;64200;55.426;37.758;2023-02-24T09:08:55;98200.31;;;-5.18;65.40
75617;BME280;64200;55.426;37.758;2023-02-24T09:14:18;98194.16;;;-5.29;65.52
75617;BME280;64200;55.426;37.758;2023-02-24T09:19:21;98187.50;;;-5.17;65.88
75617;BME280;64200;55.426;37.758;2023-02-24T09:24:40;98174.72;;;-5.24;66.27
75617;BME280;64200;55.426;37.758;2023-02-24T09:29:41;98167.06;;;-5.47;67.00
75617;BME280;64200;55.426;37.758;2023-02-24T09:34:48;98182.47;;;-5.22;67.25
75617;BME280;64200;55.426;37.758;2023-02-24T09:39:52;98147.84;;;-5.07;66.92
75617;BME280;64200;55.426;37.758;2023-02-24T09:45:01;98169.88;;;-4.95;66.65
75617;BME280;64200;55.426;37.758;2023-02-24T10:06:43;98127.47;;;-4.85;67.91
75617;BME280;64200;55.426;37.758;2023-02-24T10:11:47;98126.53;;;-4.60;67.06
75617;BME280;64200;55.426;37.758;2023-02-24T10:16:55;98102.75;;;-4.56;66.27
75617;BME280;64200;55.426;37.758;2023-02-24T10:27:39;98099.84;;;-4.31;65.85
75617;BME280;64200;55.426;37.758;2023-02-24T10:32:49;98086.25;;;-4.34;66.33
75617;BME280;64200;55.426;37.758;2023-02-24T10:37:52;98065.94;;;-4.68;66.96
75617;BME280;64200;55.426;37.758;2023-02-24T10:43:04;98076.38;;;-4.21;66.01
75617;BME280;64200;55.426;37.758;2023-02-24T10:48:22;98064.38;;;-3.89;65.11
75617;BME280;64200;55.426;37.758;2023-02-24T10:53:26;98078.13;;;-3.69;64.08
75617;BME280;64200;55.426;37.758;2023-02-24T10:58:38;98045.78;;;-3.98;64.36
75617;BME280;64200;55.426;37.758;2023-02-24T11:03:50;98070.81;;;-3.76;64.89
75617;BME280;64200;55.426;37.758;2023-02-24T11:09:00;98051.88;;;-3.86;64.69
75617;BME280;64200;55.426;37.758;2023-02-24T11:14:48;98059.31;;;-3.60;64.29
75617;BME280;64200;55.426;37.758;2023-02-24T11:25:34;98038.31;;;-3.32;64.03
75617;BME280;64200;55.426;37.758;2023-02-24T11:41:29;98015.50;;;-3.45;63.96
75617;BME280;64200;55.426;37.758;2023-02-24T11:46:53;98005.84;;;-3.50;64.15
75617;BME280;64200;55.426;37.758;2023-02-24T11:51:59;98016.13;;;-3.34;63.95
75617;BME280;64200;55.426;37.758;2023-02-24T11:57:04;97995.22;;;-3.68;64.88
75617;BME280;64200;55.426;37.758;2023-02-24T12:08:16;97999.25;;;-3.25;63.36
75617;BME280;64200;55.426;37.758;2023-02-24T12:13:31;97986.97;;;-3.37;64.04
75617;BME280;64200;55.426;37.758;2023-02-24T12:18:44;97994.03;;;-3.40;63.96
75617;BME280;64200;55.426;37.758;2023-02-24T12:23:47;97980.47;;;-3.20;63.35
75617;BME280;64200;55.426;37.758;2023-02-24T12:39:30;97968.44;;;-3.22;63.55
75617;BME280;64200;55.426;37.758;2023-02-24T12:44:51;97969.50;;;-2.92;62.75
75617;BME280;64200;55.426;37.758;2023-02-24T12:55:19;97952.53;;;-3.04;62.82
75617;BME280;64200;55.426;37.758;2023-02-24T13:05:50;97941.13;;;-2.75;62.20
75617;BME280;64200;55.426;37.758;2023-02-24T13:16:37;97930.25;;;-2.98;62.93
75617;BME280;64200;55.426;37.758;2023-02-24T13:21:39;97928.06;;;-3.07;62.91
75617;BME280;64200;55.426;37.758;2023-02-24T13:26:40;97936.34;;;-3.14;63.90
75617;BME280;64200;55.426;37.758;2023-02-24T13:31:44;97925.03;;;-3.13;63.85
75617;BME280;64200;55.426;37.758;2023-02-24T13:36:49;97920.34;;;-3.12;63.74
75617;BME280;64200;55.426;37.758;2023-02-24T13:42:00;97925.94;;;-3.20;64.92
75617;BME280;64200;55.426;37.758;2023-02-24T14:02:38;97915.97;;;-3.30;66.06
75617;BME280;64200;55.426;37.758;2023-02-24T14:07:42;97904.34;;;-3.34;65.48
75617;BME280;64200;55.426;37.758;2023-02-24T14:12:47;97902.34;;;-3.30;65.89
75617;BME280;64200;55.426;37.758;2023-02-24T14:18:00;97907.69;;;-3.23;65.26
75617;BME280;64200;55.426;37.758;2023-02-24T14:23:01;97904.41;;;-3.14;65.54
75617;BME280;64200;55.426;37.758;2023-02-24T14:28:01;97899.00;;;-3.18;65.58
75617;BME280;64200;55.426;37.758;2023-02-24T14:33:04;97897.75;;;-3.13;65.78
75617;BME280;64200;55.426;37.758;2023-02-24T14:38:05;97902.47;;;-3.13;66.08
75617;BME280;64200;55.426;37.758;2023-02-24T14:43:13;97899.50;;;-3.23;66.76
75617;BME280;64200;55.426;37.758;2023-02-24T14:48:35;97895.75;;;-3.32;67.44
75617;BME280;64200;55.426;37.758;2023-02-24T14:53:41;97885.31;;;-3.38;68.07
75617;BME280;64200;55.426;37.758;2023-02-24T14:58:51;97887.25;;;-3.34;67.79
75617;BME280;64200;55.426;37.758;2023-02-24T15:03:58;97891.91;;;-3.35;68.05
75617;BME280;64200;55.426;37.758;2023-02-24T15:09:09;97885.50;;;-3.48;68.83
75617;BME280;64200;55.426;37.758;2023-02-24T15:14:28;97891.97;;;-3.62;71.55
75617;BME280;64200;55.426;37.758;2023-02-24T15:24:36;97894.09;;;-3.50;70.28
75617;BME280;64200;55.426;37.758;2023-02-24T15:29:37;97884.09;;;-3.57;70.82
75617;BME280;64200;55.426;37.758;2023-02-24T15:34:37;97882.56;;;-3.58;71.13
75617;BME280;64200;55.426;37.758;2023-02-24T15:39:40;97891.44;;;-3.54;71.90
75617;BME280;64200;55.426;37.758;2023-02-24T15:44:53;97885.22;;;-3.54;71.03
75617;BME280;64200;55.426;37.758;2023-02-24T15:49:54;97878.50;;;-3.49;71.04
75617;BME280;64200;55.426;37.758;2023-02-24T15:54:55;97873.84;;;-3.49;71.42
75617;BME280;64200;55.426;37.758;2023-02-24T15:59:57;97874.31;;;-3.54;72.24
75617;BME280;64200;55.426;37.758;2023-02-24T16:04:58;97882.78;;;-3.48;71.65
75617;BME280;64200;55.426;37.758;2023-02-24T16:09:59;97869.66;;;-3.54;71.88
75617;BME280;64200;55.426;37.758;2023-02-24T16:15:03;97857.41;;;-3.45;71.42
75617;BME280;64200;55.426;37.758;2023-02-24T16:20:09;97858.34;;;-3.32;71.15
75617;BME280;64200;55.426;37.758;2023-02-24T16:25:14;97858.66;;;-3.26;71.25
75617;BME280;64200;55.426;37.758;2023-02-24T16:30:17;97859.91;;;-3.31;71.95
75617;BME280;64200;55.426;37.758;2023-02-24T16:35:19;97844.00;;;-3.36;71.81
75617;BME280;64200;55.426;37.758;2023-02-24T16:45:26;97824.66;;;-3.42;72.33
75617;BME280;64200;55.426;37.758;2023-02-24T16:50:38;97829.81;;;-3.47;72.19
75617;BME280;64200;55.426;37.758;2023-02-24T16:55:39;97835.50;;;-3.38;72.63
75617;BME280;64200;55.426;37.758;2023-02-24T17:00:42;97827.09;;;-3.47;73.15
75617;BME280;64200;55.426;37.758;2023-02-24T17:05:43;97816.75;;;-3.36;72.61
75617;BME280;64200;55.426;37.758;2023-02-24T17:10:44;97810.00;;;-3.28;72.45
75617;BME280;64200;55.426;37.758;2023-02-24T17:15:46;97812.59;;;-3.21;72.53
75617;BME280;64200;55.426;37.758;2023-02-24T17:20:46;97794.81;;;-3.29;73.13
75617;BME280;64200;55.426;37.758;2023-02-24T17:25:54;97786.44;;;-3.18;72.45
75617;BME280;64200;55.426;37.758;2023-02-24T17:30:55;97787.97;;;-3.17;72.66
75617;BME280;64200;55.426;37.758;2023-02-24T17:35:56;97784.16;;;-3.20;72.53
75617;BME280;64200;55.426;37.758;2023-02-24T17:40:56;97776.44;;;-3.25;72.92
75617;BME280;64200;55.426;37.758;2023-02-24T17:46:00;97774.41;;;-3.21;73.10
75617;BME280;64200;55.426;37.758;2023-02-24T17:51:01;97771.81;;;-3.28;73.89
75617;BME280;64200;55.426;37.758;2023-02-24T17:56:05;97765.63;;;-3.28;73.98
75617;BME280;64200;55.426;37.758;2023-02-24T18:01:06;97758.47;;;-3.22;73.85
75617;BME280;64200;55.426;37.758;2023-02-24T18:06:09;97763.56;;;-3.04;73.05
75617;BME280;64200;55.426;37.758;2023-02-24T18:11:13;97750.13;;;-2.95;73.09
75617;BME280;64200;55.426;37.758;2023-02-24T18:16:15;97752.66;;;-2.84;72.70
75617;BME280;64200;55.426;37.758;2023-02-24T18:21:16;97744.94;;;-2.89;73.16
75617;BME280;64200;55.426;37.758;2023-02-24T18:26:17;97733.66;;;-3.08;73.48
75617;BME280;64200;55.426;37.758;2023-02-24T18:31:22;97727.13;;;-3.14;74.28
75617;BME280;64200;55.426;37.758;2023-02-24T18:36:23;97717.19;;;-3.04;74.19
75617;BME280;64200;55.426;37.758;2023-02-24T18:41:24;97707.28;;;-2.94;73.93
75617;BME280;64200;55.426;37.758;2023-02-24T18:46:25;97707.44;;;-2.85;74.02
75617;BME280;64200;55.426;37.758;2023-02-24T18:51:26;97704.41;;;-3.07;74.13
75617;BME280;64200;55.426;37.758;2023-02-24T18:56:29;97689.31;;;-3.12;74.21
75617;BME280;64200;55.426;37.758;2023-02-24T19:01:35;97687.75;;;-2.93;74.21
75617;BME280;64200;55.426;37.758;2023-02-24T19:06:37;97684.34;;;-2.80;74.02
75617;BME280;64200;55.426;37.758;2023-02-24T19:11:41;97667.66;;;-2.83;73.79
75617;BME280;64200;55.426;37.758;2023-02-24T19:16:42;97667.97;;;-2.97;74.61
75617;BME280;64200;55.426;37.758;2023-02-24T19:21:43;97656.63;;;-2.95;74.63
75617;BME280;64200;55.426;37.758;2023-02-24T19:26:51;97652.94;;;-2.89;74.87
75617;BME280;64200;55.426;37.758;2023-02-24T19:31:51;97647.91;;;-2.90;75.12
75617;BME280;64200;55.426;37.758;2023-02-24T19:36:53;97645.13;;;-2.87;74.94
75617;BME280;64200;55.426;37.758;2023-02-24T19:41:54;97642.81;;;-2.88;74.69
75617;BME280;64200;55.426;37.758;2023-02-24T19:46:56;97630.88;;;-2.94;75.76
75617;BME280;64200;55.426;37.758;2023-02-24T19:51:57;97637.44;;;-2.92;75.16
75617;BME280;64200;55.426;37.758;2023-02-24T19:56:59;97636.41;;;-2.98;75.79
75617;BME280;64200;55.426;37.758;2023-02-24T20:01:59;97625.72;;;-2.72;75.13
75617;BME280;64200;55.426;37.758;2023-02-24T20:07:01;97632.09;;;-2.62;75.23
75617;BME280;64200;55.426;37.758;2023-02-24T20:12:01;97635.06;;;-2.73;75.36
75617;BME280;64200;55.426;37.758;2023-02-24T20:17:02;97616.22;;;-2.51;74.99
75617;BME280;64200;55.426;37.758;2023-02-24T20:22:02;97618.00;;;-2.44;74.49
75617;BME280;64200;55.426;37.758;2023-02-24T20:27:03;97620.06;;;-2.65;75.32
75617;BME280;64200;55.426;37.758;2023-02-24T20:32:04;97609.75;;;-2.57;74.97
75617;BME280;64200;55.426;37.758;2023-02-24T20:37:05;97609.47;;;-2.47;74.71
75617;BME280;64200;55.426;37.758;2023-02-24T20:42:06;97595.25;;;-2.54;74.92
75617;BME280;64200;55.426;37.758;2023-02-24T20:47:06;97592.13;;;-2.40;74.70
75617;BME280;64200;55.426;37.758;2023-02-24T20:52:07;97593.44;;;-2.44;74.89
75617;BME280;64200;55.426;37.758;2023-02-24T20:57:08;97596.41;;;-2.39;75.33
75617;BME280;64200;55.426;37.758;2023-02-24T21:02:09;97583.19;;;-2.40;74.93
75617;BME280;64200;55.426;37.758;2023-02-24T21:07:10;97580.97;;;-2.29;74.77
75617;BME280;64200;55.426;37.758;2023-02-24T21:12:13;97574.41;;;-2.48;74.89
75617;BME280;64200;55.426;37.758;2023-02-24T21:17:14;97573.44;;;-2.41;75.26
75617;BME280;64200;55.426;37.758;2023-02-24T21:22:15;97572.09;;;-2.33;74.74
75617;BME280;64200;55.426;37.758;2023-02-24T21:27:15;97569.22;;;-2.42;75.03
75617;BME280;64200;55.426;37.758;2023-02-24T21:32:16;97562.75;;;-2.49;74.91
75617;BME280;64200;55.426;37.758;2023-02-24T21:37:16;97537.13;;;-2.55;75.13
75617;BME280;64200;55.426;37.758;2023-02-24T21:42:17;97569.47;;;-2.37;76.04
75617;BME280;64200;55.426;37.758;2023-02-24T21:47:18;97559.34;;;-2.23;75.40
75617;BME280;64200;55.426;37.758;2023-02-24T21:52:19;97545.09;;;-2.31;74.83
75617;BME280;64200;55.426;37.758;2023-02-24T21:57:21;97547.84;;;-2.31;74.82
75617;BME280;64200;55.426;37.758;2023-02-24T22:02:22;97555.47;;;-2.39;75.29
75617;BME280;64200;55.426;37.758;2023-02-24T22:07:23;97527.75;;;-2.54;75.60
75617;BME280;64200;55.426;37.758;2023-02-24T22:12:23;97543.97;;;-2.47;75.82
75617;BME280;64200;55.426;37.758;2023-02-24T22:17:24;97543.47;;;-2.58;76.03
75617;BME280;64200;55.426;37.758;2023-02-24T22:22:24;97544.81;;;-2.50;76.41
75617;BME280;64200;55.426;37.758;2023-02-24T22:27:27;97518.78;;;-2.38;75.78
75617;BME280;64200;55.426;37.758;2023-02-24T22:32:28;97520.53;;;-2.31;75.65
75617;BME280;64200;55.426;37.758;2023-02-24T22:37:28;97515.19;;;-2.35;75.90
75617;BME280;64200;55.426;37.758;2023-02-24T22:42:29;97507.41;;;-2.36;75.84
75617;BME280;64200;55.426;37.758;2023-02-24T22:47:29;97507.91;;;-2.25;75.68
75617;BME280;64200;55.426;37.758;2023-02-24T22:52:30;97509.97;;;-2.16;75.57
75617;BME280;64200;55.426;37.758;2023-02-24T22:57:31;97483.16;;;-2.34;75.49
75617;BME280;64200;55.426;37.758;2023-02-24T23:02:34;97490.84;;;-2.16;75.47
75617;BME280;64200;55.426;37.758;2023-02-24T23:07:34;97495.63;;;-2.33;75.98
75617;BME280;64200;55.426;37.758;2023-02-24T23:12:36;97490.09;;;-2.17;75.47
75617;BME280;64200;55.426;37.758;2023-02-24T23:17:39;97482.47;;;-2.09;75.26
75617;BME280;64200;55.426;37.758;2023-02-24T23:22:40;97475.81;;;-2.08;75.45
75617;BME280;64200;55.426;37.758;2023-02-24T23:27:42;97478.50;;;-2.21;76.02
75617;BME280;64200;55.426;37.758;2023-02-24T23:32:42;97463.34;;;-2.22;75.79
75617;BME280;64200;55.426;37.758;2023-02-24T23:37:43;97477.63;;;-2.18;75.72
75617;BME280;64200;55.426;37.758;2023-02-24T23:42:44;97456.97;;;-2.32;76.63
75617;BME280;64200;55.426;37.758;2023-02-24T23:47:45;97463.03;;;-2.11;76.16
75617;BME280;64200;55.426;37.758;2023-02-24T23:52:46;97444.03;;;-2.02;76.14
75617;BME280;64200;55.426;37.758;2023-02-24T23:57:46;97442.28;;;-1.96;75.39
